createdAt,value
2022-08-19T00:01:53.357Z,19.83
2022-08-19T00:04:23.787Z,18.95
2022-08-19T00:06:50.893Z,20.05
2022-08-19T00:09:20.176Z,19.10
2022-08-19T00:11:47.005Z,19.13
2022-08-19T00:14:16.682Z,18.23
2022-08-19T00:16:48.197Z,19.02
2022-08-19T00:19:15.969Z,19.60
2022-08-19T00:21:44.298Z,19.15
2022-08-19T00:24:13.141Z,18.75
2022-08-19T00:26:40.301Z,20.00
2022-08-19T00:29:08.838Z,20.52
2022-08-19T00:31:36.301Z,19.55
2022-08-19T00:34:03.779Z,19.17
2022-08-19T00:36:30.887Z,20.50
2022-08-19T00:39:00.109Z,20.45
2022-08-19T00:41:31.576Z,18.55
2022-08-19T00:44:15.239Z,19.02
2022-08-19T00:46:44.644Z,20.67
2022-08-19T00:49:35.401Z,19.77
2022-08-19T00:52:15.636Z,19.23
2022-08-19T00:54:44.132Z,18.85
2022-08-19T00:57:17.552Z,20.58
2022-08-19T00:59:58.799Z,20.60
2022-08-19T01:02:30.622Z,20.17
2022-08-19T01:04:57.649Z,19.42
2022-08-19T01:07:24.512Z,19.90
2022-08-19T01:09:51.540Z,19.52
2022-08-19T01:12:21.144Z,19.73
2022-08-19T01:14:48.710Z,19.88
2022-08-19T01:17:16.961Z,19.55
2022-08-19T01:19:46.092Z,19.20
2022-08-19T01:22:31.569Z,19.67
2022-08-19T01:25:00.310Z,19.23
2022-08-19T01:27:27.163Z,19.65
2022-08-19T01:29:59.971Z,19.75
2022-08-19T01:32:33.355Z,19.52
2022-08-19T01:35:02.679Z,19.60
2022-08-19T01:37:31.302Z,20.17
2022-08-19T01:39:58.392Z,19.40
2022-08-19T01:42:30.621Z,19.77
2022-08-19T01:45:02.854Z,20.02
2022-08-19T01:47:29.584Z,20.80
2022-08-19T01:49:56.485Z,20.50
2022-08-19T01:52:25.698Z,20.17
2022-08-19T01:54:52.499Z,20.83
2022-08-19T01:57:19.458Z,19.08
2022-08-19T01:59:46.768Z,19.65
2022-08-19T02:02:13.531Z,19.85
2022-08-19T02:04:40.228Z,19.65
2022-08-19T02:07:09.027Z,19.50
2022-08-19T02:09:36.494Z,20.00
2022-08-19T02:12:04.718Z,20.80
2022-08-19T02:14:31.584Z,20.25
2022-08-19T02:17:00.830Z,19.45
2022-08-19T02:19:27.557Z,20.55
2022-08-19T02:21:54.397Z,20.55
2022-08-19T02:24:21.142Z,21.42
2022-08-19T02:26:47.946Z,20.83
2022-08-19T02:29:16.851Z,20.35
2022-08-19T02:31:43.782Z,20.17
2022-08-19T02:34:10.605Z,21.15
2022-08-19T02:36:37.484Z,19.73
2022-08-19T02:39:10.114Z,20.50
2022-08-19T02:41:39.180Z,20.80
2022-08-19T02:44:30.529Z,20.65
2022-08-19T02:46:53.093Z,20.75
2022-08-19T02:49:20.603Z,20.27
2022-08-19T02:51:48.066Z,19.80
2022-08-19T02:54:15.563Z,21.23
2022-08-19T02:56:43.770Z,21.17
2022-08-19T02:59:12.930Z,20.42
2022-08-19T03:01:42.405Z,20.77
2022-08-19T03:04:15.205Z,22.10
2022-08-19T03:06:44.448Z,20.83
2022-08-19T03:09:12.739Z,20.23
2022-08-19T03:11:39.775Z,20.42
2022-08-19T03:14:13.681Z,21.23
2022-08-19T03:16:47.901Z,20.42
2022-08-19T03:19:22.088Z,21.40
2022-08-19T03:21:49.020Z,19.75
2022-08-19T03:24:16.344Z,21.15
2022-08-19T03:26:45.662Z,21.10
2022-08-19T03:29:13.099Z,21.23
2022-08-19T03:31:50.958Z,22.23
2022-08-19T03:34:29.803Z,21.02
2022-08-19T03:36:59.032Z,21.10
2022-08-19T03:39:28.524Z,20.55
2022-08-19T03:42:32.484Z,19.30
2022-08-19T03:44:47.731Z,20.63
2022-08-19T03:47:17.809Z,19.52
2022-08-19T03:49:47.287Z,20.73
2022-08-19T03:52:15.098Z,19.98
2022-08-19T03:54:41.843Z,19.83
2022-08-19T03:57:09.875Z,20.73
2022-08-19T03:59:38.247Z,20.55
2022-08-19T04:02:11.793Z,20.25
2022-08-19T04:04:44.161Z,19.80
2022-08-19T04:07:16.763Z,19.98
2022-08-19T04:09:46.307Z,18.85
2022-08-19T04:12:13.226Z,18.02
2022-08-19T04:14:40.589Z,18.20
2022-08-19T04:17:09.813Z,18.23
2022-08-19T04:19:37.942Z,18.02
2022-08-19T04:22:05.035Z,17.25
2022-08-19T04:24:32.646Z,16.42
2022-08-19T04:27:02.035Z,15.63
2022-08-19T04:29:29.810Z,15.52
2022-08-19T04:31:58.138Z,14.25
2022-08-19T04:34:27.697Z,14.65
2022-08-19T04:36:56.132Z,14.75
2022-08-19T04:39:45.672Z,15.00
2022-08-19T04:42:31.233Z,14.75
2022-08-19T04:44:59.583Z,15.32
2022-08-19T04:47:47.092Z,14.07
2022-08-19T04:50:13.728Z,14.55
2022-08-19T04:52:43.601Z,14.02
2022-08-19T04:55:11.868Z,13.50
2022-08-19T04:57:41.223Z,13.15
2022-08-19T05:00:09.614Z,14.25
2022-08-19T05:02:36.760Z,13.77
2022-08-19T05:05:04.414Z,13.88
2022-08-19T05:07:31.746Z,13.30
2022-08-19T05:09:59.287Z,13.32
2022-08-19T05:12:29.230Z,14.20
2022-08-19T05:14:59.386Z,13.93
2022-08-19T05:17:29.615Z,13.73
2022-08-19T05:20:16.134Z,13.55
2022-08-19T05:22:44.717Z,14.52
2022-08-19T05:25:14.757Z,14.38
2022-08-19T05:27:43.269Z,14.18
2022-08-19T05:30:12.131Z,14.43
2022-08-19T05:32:39.639Z,14.75
2022-08-19T05:35:06.916Z,13.07
2022-08-19T05:37:35.834Z,13.63
2022-08-19T05:40:03.435Z,13.32
2022-08-19T05:42:34.597Z,12.70
2022-08-19T05:45:04.808Z,12.82
2022-08-19T05:47:31.485Z,13.45
2022-08-19T05:50:02.702Z,12.63
2022-08-19T05:52:31.940Z,12.27
2022-08-19T05:54:58.626Z,11.63
2022-08-19T05:57:25.742Z,12.07
2022-08-19T05:59:58.501Z,11.77
2022-08-19T06:02:27.289Z,12.50
2022-08-19T06:04:54.061Z,13.25
2022-08-19T06:07:20.836Z,12.93
2022-08-19T06:09:59.096Z,12.65
2022-08-19T06:12:29.639Z,13.27
2022-08-19T06:15:00.830Z,13.45
2022-08-19T06:17:28.281Z,13.48
2022-08-19T06:19:54.937Z,13.05
2022-08-19T06:22:21.766Z,12.75
2022-08-19T06:24:48.553Z,12.80
2022-08-19T06:27:16.912Z,12.82
2022-08-19T06:29:43.783Z,13.05
2022-08-19T06:32:10.591Z,13.00
2022-08-19T06:34:37.630Z,12.85
2022-08-19T06:37:06.545Z,12.48
2022-08-19T06:39:39.357Z,12.63
2022-08-19T06:42:10.955Z,12.43
2022-08-19T06:44:42.653Z,11.93
2022-08-19T06:47:14.760Z,13.43
2022-08-19T06:49:50.327Z,12.38
2022-08-19T06:52:20.849Z,12.95
2022-08-19T06:54:55.659Z,12.15
2022-08-19T06:57:24.601Z,11.80
2022-08-19T06:59:51.436Z,12.65
2022-08-19T07:04:52.607Z,10.85
2022-08-19T07:07:23.158Z,12.25
2022-08-19T07:09:59.280Z,12.18
2022-08-19T07:12:33.890Z,11.30
2022-08-19T07:15:04.792Z,10.98
2022-08-19T07:17:35.779Z,12.30
2022-08-19T07:20:07.093Z,11.18
2022-08-19T07:22:39.653Z,10.85
2022-08-19T07:25:10.859Z,10.38
2022-08-19T07:27:39.719Z,10.98
2022-08-19T07:30:11.747Z,10.82
2022-08-19T07:32:41.599Z,10.88
2022-08-19T07:35:11.417Z,10.63
2022-08-19T07:37:39.270Z,10.57
2022-08-19T07:40:07.868Z,10.52
2022-08-19T07:42:37.275Z,10.43
2022-08-19T07:45:05.404Z,10.77
2022-08-19T07:47:49.460Z,11.32
2022-08-19T07:50:20.622Z,10.23
2022-08-19T07:52:51.155Z,10.65
2022-08-19T07:55:42.404Z,9.80
2022-08-19T07:58:11.168Z,10.85
2022-08-19T08:00:41.221Z,10.68
2022-08-19T08:03:10.704Z,10.52
2022-08-19T08:05:55.889Z,10.10
2022-08-19T08:08:48.070Z,10.10
2022-08-19T08:11:19.921Z,9.80
2022-08-19T08:13:47.152Z,9.75
2022-08-19T08:16:32.120Z,9.93
2022-08-19T08:18:59.272Z,9.70
2022-08-19T08:21:28.643Z,10.77
2022-08-19T08:23:56.610Z,10.07
2022-08-19T08:26:24.446Z,9.98
2022-08-19T08:28:55.685Z,10.02
2022-08-19T08:31:23.054Z,10.35
2022-08-19T08:33:49.965Z,9.27
2022-08-19T08:36:17.035Z,9.23
2022-08-19T08:38:47.948Z,8.38
2022-08-19T08:41:51.020Z,8.38
2022-08-19T08:44:22.602Z,9.43
2022-08-19T08:46:56.314Z,8.80
2022-08-19T08:49:37.599Z,9.38
2022-08-19T08:52:16.513Z,8.23
2022-08-19T08:54:54.818Z,9.20
2022-08-19T08:57:37.078Z,9.57
2022-08-19T09:00:15.768Z,9.05
2022-08-19T09:02:50.355Z,9.45
2022-08-19T09:05:22.749Z,8.43
2022-08-19T09:08:14.726Z,8.25
2022-08-19T09:10:47.296Z,6.88
2022-08-19T09:13:59.975Z,7.53
2022-08-19T09:16:28.527Z,7.38
2022-08-19T09:19:01.224Z,8.63
2022-08-19T09:21:33.098Z,7.55
2022-08-19T09:24:00.624Z,7.45
2022-08-19T09:26:48.636Z,8.18
2022-08-19T09:29:17.951Z,8.40
2022-08-19T09:31:46.892Z,8.13
2022-08-19T09:34:21.120Z,7.82
2022-08-19T09:36:54.677Z,7.00
2022-08-19T09:39:22.611Z,6.72
2022-08-19T09:41:51.268Z,6.40
2022-08-19T09:44:21.287Z,6.45
2022-08-19T09:46:48.855Z,6.32
2022-08-19T09:49:18.323Z,6.40
2022-08-19T09:51:51.319Z,6.97
2022-08-19T09:54:23.661Z,6.60
2022-08-19T09:56:52.967Z,7.30
2022-08-19T09:59:19.938Z,6.57
2022-08-19T10:01:47.000Z,6.53
2022-08-19T10:04:20.191Z,7.05
2022-08-19T10:06:53.517Z,6.53
2022-08-19T10:09:26.112Z,6.72
2022-08-19T10:11:55.865Z,7.30
2022-08-19T10:14:24.370Z,7.07
2022-08-19T10:16:54.690Z,6.50
2022-08-19T10:19:25.825Z,6.40
2022-08-19T10:21:54.184Z,6.30
2022-08-19T10:24:21.442Z,7.30
2022-08-19T10:26:57.119Z,7.07
2022-08-19T10:29:32.470Z,7.68
2022-08-19T10:34:31.584Z,5.68
2022-08-19T10:37:01.747Z,5.95
2022-08-19T10:39:31.600Z,5.45
2022-08-19T10:41:59.778Z,5.40
2022-08-19T10:44:32.299Z,5.40
2022-08-19T10:47:02.215Z,5.05
2022-08-19T10:49:51.681Z,5.25
2022-08-19T10:52:38.905Z,4.85
2022-08-19T10:55:29.905Z,4.70
2022-08-19T10:58:02.473Z,5.28
2022-08-19T11:00:32.443Z,5.50
2022-08-19T11:03:03.936Z,5.70
2022-08-19T11:05:39.936Z,6.40
2022-08-19T11:08:23.557Z,5.95
2022-08-19T11:11:02.189Z,6.00
2022-08-19T11:13:30.696Z,6.63
2022-08-19T11:16:07.454Z,6.43
2022-08-19T11:18:37.829Z,6.30
2022-08-19T11:21:35.487Z,5.57
2022-08-19T11:24:06.780Z,5.88
2022-08-19T11:26:34.876Z,6.07
2022-08-19T11:29:02.357Z,5.53
2022-08-19T11:31:31.815Z,5.40
2022-08-19T11:34:04.073Z,5.82
2022-08-19T11:36:35.322Z,5.78
2022-08-19T11:39:02.831Z,5.30
2022-08-19T11:41:29.552Z,5.05
2022-08-19T11:43:58.730Z,5.15
2022-08-19T11:46:26.950Z,5.45
2022-08-19T11:48:53.667Z,4.70
2022-08-19T11:51:23.132Z,4.78
2022-08-19T11:53:51.315Z,5.30
2022-08-19T11:56:19.590Z,4.97
2022-08-19T11:58:46.561Z,4.45
2022-08-19T12:01:17.943Z,3.42
2022-08-19T12:03:46.623Z,2.92
2022-08-19T12:06:16.920Z,2.80
2022-08-19T12:08:45.473Z,3.00
2022-08-19T12:11:14.642Z,3.72
2022-08-19T12:13:43.456Z,3.10
2022-08-19T12:16:13.545Z,2.83
2022-08-19T12:18:47.338Z,2.78
2022-08-19T12:21:19.201Z,2.63
2022-08-19T12:23:46.325Z,2.95
2022-08-19T12:26:13.576Z,2.90
2022-08-19T12:28:40.711Z,3.08
2022-08-19T12:31:07.542Z,3.55
2022-08-19T12:33:36.471Z,4.05
2022-08-19T12:36:08.638Z,3.00
2022-08-19T12:38:35.780Z,3.08
2022-08-19T12:41:07.810Z,3.50
2022-08-19T12:43:36.111Z,2.70
2022-08-19T12:46:10.898Z,3.00
2022-08-19T12:48:38.552Z,3.60
2022-08-19T12:51:13.146Z,3.15
2022-08-19T12:53:40.700Z,3.45
2022-08-19T12:56:11.570Z,3.50
2022-08-19T12:58:39.750Z,3.20
2022-08-19T13:01:13.443Z,3.28
2022-08-19T13:03:42.711Z,3.58
2022-08-19T13:06:12.897Z,3.85
2022-08-19T13:08:40.003Z,3.60
2022-08-19T13:11:18.716Z,3.58
2022-08-19T13:13:49.441Z,3.28
2022-08-19T13:16:17.130Z,3.20
2022-08-19T13:18:48.405Z,3.67
2022-08-19T13:21:20.941Z,3.20
2022-08-19T13:23:56.955Z,3.70
2022-08-19T13:26:26.808Z,3.60
2022-08-19T13:29:11.990Z,4.30
2022-08-19T13:32:00.466Z,3.53
2022-08-19T13:34:34.730Z,3.58
2022-08-19T13:37:04.016Z,3.63
2022-08-19T13:39:33.193Z,3.33
2022-08-19T13:42:02.572Z,3.60
2022-08-19T13:44:32.165Z,3.53
2022-08-19T13:47:10.759Z,3.67
2022-08-19T13:49:37.787Z,3.28
2022-08-19T13:52:05.690Z,3.60
2022-08-19T13:54:32.462Z,3.70
2022-08-19T13:57:01.609Z,3.42
2022-08-19T13:59:30.776Z,3.38
2022-08-19T14:02:01.546Z,3.13
2022-08-19T14:04:28.475Z,3.70
2022-08-19T14:06:55.847Z,3.80
2022-08-19T14:09:22.619Z,4.40
2022-08-19T14:11:51.156Z,4.05
2022-08-19T14:14:17.906Z,3.85
2022-08-19T14:16:47.041Z,3.80
2022-08-19T14:19:16.191Z,4.30
2022-08-19T14:21:42.945Z,3.78
2022-08-19T14:24:09.837Z,3.80
2022-08-19T14:26:36.605Z,3.55
2022-08-19T14:29:03.359Z,3.90
2022-08-19T14:31:30.968Z,4.43
2022-08-19T14:33:57.802Z,3.70
2022-08-19T14:36:24.938Z,3.95
2022-08-19T14:38:51.701Z,3.75
2022-08-19T14:41:22.615Z,3.95
2022-08-19T14:43:51.343Z,4.15
2022-08-19T14:46:23.630Z,4.07
2022-08-19T14:48:52.664Z,4.93
2022-08-19T14:51:20.621Z,4.25
2022-08-19T14:53:50.221Z,3.45
2022-08-19T14:56:21.216Z,3.80
2022-08-19T14:58:48.026Z,3.80
2022-08-19T15:01:15.196Z,4.00
2022-08-19T15:03:42.215Z,4.70
2022-08-19T15:06:09.640Z,4.40
2022-08-19T15:08:44.070Z,4.20
2022-08-19T15:11:15.606Z,3.72
2022-08-19T15:13:43.413Z,4.65
2022-08-19T15:16:17.932Z,5.35
2022-08-19T15:18:47.203Z,4.85
2022-08-19T15:21:26.442Z,3.75
2022-08-19T15:23:56.446Z,3.80
2022-08-19T15:26:28.414Z,4.10
2022-08-19T15:28:55.630Z,3.70
2022-08-19T15:31:28.052Z,3.85
2022-08-19T15:33:59.733Z,5.45
2022-08-19T15:36:27.418Z,3.72
2022-08-19T15:38:55.615Z,3.20
2022-08-19T15:41:26.609Z,3.88
2022-08-19T15:44:13.441Z,3.97
2022-08-19T15:46:42.058Z,3.45
2022-08-19T15:49:09.979Z,3.65
2022-08-19T15:51:38.994Z,3.70
2022-08-19T15:54:08.586Z,3.60
2022-08-19T15:56:58.245Z,3.55
2022-08-19T15:59:46.837Z,3.92
2022-08-19T16:02:33.795Z,3.90
2022-08-19T16:05:19.180Z,3.70
2022-08-19T16:07:45.954Z,4.45
2022-08-19T16:10:27.482Z,5.40
2022-08-19T16:12:56.115Z,5.40
2022-08-19T16:15:26.181Z,5.13
2022-08-19T16:17:56.986Z,5.30
2022-08-19T16:20:24.759Z,5.07
2022-08-19T16:22:52.644Z,5.22
2022-08-19T16:25:19.503Z,5.07
2022-08-19T16:27:54.274Z,5.40
2022-08-19T16:30:33.018Z,5.25
2022-08-19T16:33:04.449Z,5.55
2022-08-19T16:35:31.140Z,5.50
2022-08-19T16:37:57.953Z,5.30
2022-08-19T16:40:25.217Z,5.70
2022-08-19T16:42:53.650Z,5.22
2022-08-19T16:45:21.870Z,5.55
2022-08-19T16:47:50.130Z,5.80
2022-08-19T16:50:25.278Z,5.63
2022-08-19T16:53:03.354Z,5.43
2022-08-19T16:55:30.233Z,5.40
2022-08-19T16:58:04.369Z,4.88
2022-08-19T17:00:31.569Z,5.07
2022-08-19T17:03:14.787Z,5.50
2022-08-19T17:05:53.350Z,5.15
2022-08-19T17:08:29.853Z,4.93
2022-08-19T17:11:17.028Z,4.75
2022-08-19T17:13:45.114Z,4.57
2022-08-19T17:16:16.460Z,4.60
2022-08-19T17:18:52.445Z,4.32
2022-08-19T17:21:23.281Z,4.10
2022-08-19T17:23:50.510Z,4.25
2022-08-19T17:26:18.792Z,4.53
2022-08-19T17:28:49.533Z,4.00
2022-08-19T17:31:18.401Z,4.03
2022-08-19T17:33:48.515Z,4.00
2022-08-19T17:36:17.633Z,3.92
2022-08-19T17:38:45.016Z,3.78
2022-08-19T17:41:11.920Z,4.10
2022-08-19T17:43:42.852Z,3.95
2022-08-19T17:46:18.738Z,3.40
2022-08-19T17:48:52.086Z,3.30
2022-08-19T17:51:35.719Z,3.30
2022-08-19T17:54:05.458Z,3.17
2022-08-19T17:56:32.226Z,4.05
2022-08-19T17:59:00.452Z,3.17
2022-08-19T18:01:48.396Z,3.85
2022-08-19T18:04:24.696Z,3.70
2022-08-19T18:06:53.106Z,3.63
2022-08-19T18:09:28.547Z,3.65
2022-08-19T18:12:03.177Z,3.33
2022-08-19T18:14:36.413Z,3.97
2022-08-19T18:17:10.755Z,3.40
2022-08-19T18:19:42.115Z,4.15
2022-08-19T18:22:24.330Z,3.55
2022-08-19T18:24:51.684Z,3.60
2022-08-19T18:27:18.982Z,3.53
2022-08-19T18:29:45.918Z,3.08
2022-08-19T18:32:13.253Z,3.55
2022-08-19T18:34:42.703Z,4.03
2022-08-19T18:37:10.467Z,3.97
2022-08-19T18:39:55.751Z,4.07
2022-08-19T18:42:41.172Z,4.40
2022-08-19T18:45:28.165Z,4.20
2022-08-19T18:48:26.972Z,4.30
2022-08-19T18:50:59.551Z,4.65
2022-08-19T18:53:29.705Z,4.38
2022-08-19T18:55:57.707Z,5.20
2022-08-19T18:58:33.524Z,4.80
2022-08-19T19:01:11.098Z,4.75
2022-08-19T19:03:42.484Z,4.90
2022-08-19T19:06:09.579Z,5.10
2022-08-19T19:08:40.915Z,4.88
2022-08-19T19:11:09.986Z,4.32
2022-08-19T19:13:40.293Z,4.60
2022-08-19T19:16:11.569Z,4.13
2022-08-19T19:18:39.205Z,4.35
2022-08-19T19:21:07.915Z,4.43
2022-08-19T19:23:34.769Z,4.60
2022-08-19T19:26:01.647Z,4.30
2022-08-19T19:28:29.287Z,4.10
2022-08-19T19:31:00.458Z,4.00
2022-08-19T19:33:28.338Z,3.25
2022-08-19T19:35:55.431Z,4.00
2022-08-19T19:38:27.955Z,3.40
2022-08-19T19:40:54.837Z,3.50
2022-08-19T19:43:21.782Z,3.45
2022-08-19T19:45:49.001Z,3.45
2022-08-19T19:48:16.467Z,3.40
2022-08-19T19:50:46.484Z,2.95
2022-08-19T19:53:24.675Z,2.92
2022-08-19T19:56:02.155Z,3.10
2022-08-19T19:58:30.834Z,3.38
2022-08-19T20:01:02.496Z,2.70
2022-08-19T20:03:36.357Z,2.85
2022-08-19T20:06:03.218Z,2.97
2022-08-19T20:08:50.954Z,2.95
2022-08-19T20:11:43.719Z,2.47
2022-08-19T20:14:24.016Z,2.30
2022-08-19T20:16:52.116Z,2.42
2022-08-19T20:19:22.278Z,2.30
2022-08-19T20:21:52.521Z,2.10
2022-08-19T20:24:32.410Z,1.63
2022-08-19T20:27:00.622Z,1.90
2022-08-19T20:29:38.811Z,2.10
2022-08-19T20:32:07.634Z,2.28
2022-08-19T20:34:37.281Z,1.60
2022-08-19T20:37:04.662Z,2.17
2022-08-19T20:39:31.477Z,2.00
2022-08-19T20:41:58.343Z,1.80
2022-08-19T20:44:25.415Z,1.90
2022-08-19T20:46:54.721Z,1.52
2022-08-19T20:49:23.089Z,1.73
2022-08-19T20:51:55.217Z,1.55
2022-08-19T20:54:22.061Z,1.48
2022-08-19T20:56:48.892Z,1.67
2022-08-19T20:59:15.597Z,1.40
2022-08-19T21:01:42.349Z,1.50
2022-08-19T21:04:09.165Z,1.50
2022-08-19T21:06:42.226Z,1.48
2022-08-19T21:09:12.381Z,1.50
2022-08-19T21:11:41.629Z,1.40
2022-08-19T21:14:08.757Z,1.77
2022-08-19T21:16:35.947Z,1.30
2022-08-19T21:19:03.486Z,1.17
2022-08-19T21:21:31.078Z,1.52
2022-08-19T21:24:00.100Z,1.45
2022-08-19T21:26:27.154Z,1.33
2022-08-19T21:28:53.886Z,1.63
2022-08-19T21:31:21.106Z,1.70
2022-08-19T21:33:47.980Z,1.45
2022-08-19T21:36:14.670Z,1.58
2022-08-19T21:38:43.998Z,1.40
2022-08-19T21:41:13.588Z,1.40
2022-08-19T21:43:40.321Z,1.88
2022-08-19T21:46:07.785Z,1.90
2022-08-19T21:48:37.413Z,1.58
2022-08-19T21:51:04.663Z,1.58
2022-08-19T21:53:34.507Z,1.10
2022-08-19T21:56:06.548Z,1.50
2022-08-19T21:58:34.302Z,1.15
2022-08-19T22:01:05.832Z,1.05
2022-08-19T22:03:37.204Z,1.30
2022-08-19T22:06:04.480Z,1.10
2022-08-19T22:08:31.545Z,1.40
2022-08-19T22:11:01.328Z,1.33
2022-08-19T22:13:28.100Z,1.30
2022-08-19T22:15:55.289Z,1.00
2022-08-19T22:18:22.098Z,1.35
2022-08-19T22:20:49.065Z,1.05
2022-08-19T22:23:15.796Z,1.30
2022-08-19T22:25:45.553Z,1.30
2022-08-19T22:29:38.669Z,1.10
2022-08-19T22:32:23.025Z,1.05
2022-08-19T22:34:53.522Z,0.90
2022-08-19T22:37:20.257Z,1.13
2022-08-19T22:39:49.531Z,1.02
2022-08-19T22:42:21.972Z,1.10
2022-08-19T22:44:49.571Z,0.90
2022-08-19T22:47:17.132Z,1.08
2022-08-19T22:49:44.821Z,1.00
2022-08-19T22:52:18.115Z,1.40
2022-08-19T22:54:52.723Z,1.02
2022-08-19T22:57:21.095Z,1.10
2022-08-19T22:59:50.628Z,1.27
2022-08-19T23:02:25.147Z,1.15
2022-08-19T23:04:52.660Z,0.90
2022-08-19T23:07:23.593Z,1.15
2022-08-19T23:09:50.816Z,1.20
2022-08-19T23:12:30.633Z,1.05
2022-08-19T23:15:24.014Z,1.02
2022-08-19T23:17:52.453Z,1.50
2022-08-19T23:20:22.522Z,1.20
2022-08-19T23:22:50.894Z,1.00
2022-08-19T23:25:23.134Z,1.48
2022-08-19T23:28:08.334Z,1.10
2022-08-19T23:30:43.780Z,1.30
2022-08-19T23:33:24.953Z,1.08
2022-08-19T23:35:54.077Z,1.20
2022-08-19T23:38:23.225Z,1.35
2022-08-19T23:40:52.459Z,0.95
2022-08-19T23:43:24.479Z,1.00
2022-08-19T23:45:53.693Z,1.20
2022-08-19T23:48:25.349Z,1.10
2022-08-19T23:50:56.525Z,0.93
2022-08-19T23:53:23.653Z,1.10
2022-08-19T23:55:50.456Z,1.20
2022-08-19T23:58:20.206Z,1.10
